Airfield :
LOGIN :

Register | Disclaimer

   EN    FR    IT 

 










Legend :    VFR   Marginal VFR   IFR   Intensive IFR   Very Intensive IFR
Visi :
Ceiling :
>= 8 km
>= 3000ft
5 to 8 km
1000 to 3000 ft
1500m to 5 km
500 to 1000 ft
800 to 1500m
200 to 500 ft
< 800m
< 200 ft
Symbols :   Thunderstorms  Fog  Heavy snow  Heavy precipitations  Wind > 20 kt
SIGMETs :     Misc.  Thunderstorms  Icing  Turbulence  Mountain Waves  Volcanic Ashes







- Airport Elevation : 1345 ft
- IATA code : FRZ


ETHF - Fritzlar

CURRENT METAR :
  • 270820Z 03003KT 9999 BKN070 BKN140 17/11 Q1011 BLU BLU

EXPIRED METARs :
  • 270720Z 36004KT 9999 FEW025 BKN140 OVC180 16/11 Q1011 BLU BLU
  • 270620Z 32003KT 9999 SCT060 BKN140 14/10 Q1012 BLU BLU

TAF TAF ETHF
Valid from the 27 at 08:00 until the 27 at 17:00 UTC


270718Z 2708/2717 03007KT 9999 NSW SCT020 BKN050
PROB30 2714/2717 14010G25KT 2000 -TSRA BKN015CB
No reported NOTAMs for that airfield.



MET'MAP, your aeronautical weather chart ! - Copyright ORBIFLY December 2007 - Disclaimer

ORBIFLY MET'MAP TEAM :

Programming & Development : Alexandra Zaïnal
Concept & Development : Baudouin d'Aumeries
Co-Development & Prog : Marc-Olivier Méhu
Technical & hardware support : Manuel Goepfert

Contact : metmap@orbifly.com




SOURCES & CREDITS :

   NOAA